sensor_id;sensor_type;location;lat;lon;timestamp;P1;durP1;ratioP1;P2;durP2;ratioP2
9536;SDS011;4807;48.024;11.726;2023-06-22T00:00:17;6.77;;;3.20;;
9536;SDS011;4807;48.024;11.726;2023-06-22T00:03:27;8.10;;;3.60;;
9536;SDS011;4807;48.024;11.726;2023-06-22T00:06:36;6.13;;;3.33;;
9536;SDS011;4807;48.024;11.726;2023-06-22T00:09:45;7.73;;;3.43;;
9536;SDS011;4807;48.024;11.726;2023-06-22T00:12:53;7.47;;;3.67;;
9536;SDS011;4807;48.024;11.726;2023-06-22T00:16:02;9.23;;;4.03;;
9536;SDS011;4807;48.024;11.726;2023-06-22T00:19:11;8.07;;;3.97;;
9536;SDS011;4807;48.024;11.726;2023-06-22T00:22:19;10.60;;;4.10;;
9536;SDS011;4807;48.024;11.726;2023-06-22T00:25:37;10.50;;;4.50;;
9536;SDS011;4807;48.024;11.726;2023-06-22T00:28:46;7.20;;;4.80;;
9536;SDS011;4807;48.024;11.726;2023-06-22T00:31:55;7.57;;;4.57;;
9536;SDS011;4807;48.024;11.726;2023-06-22T00:35:03;10.27;;;5.23;;
9536;SDS011;4807;48.024;11.726;2023-06-22T00:38:12;9.83;;;5.57;;
9536;SDS011;4807;48.024;11.726;2023-06-22T00:41:22;9.33;;;6.03;;
9536;SDS011;4807;48.024;11.726;2023-06-22T00:44:34;10.37;;;6.73;;
9536;SDS011;4807;48.024;11.726;2023-06-22T00:47:42;10.90;;;6.63;;
9536;SDS011;4807;48.024;11.726;2023-06-22T00:50:52;10.33;;;6.60;;
9536;SDS011;4807;48.024;11.726;2023-06-22T00:54:02;9.17;;;6.10;;
9536;SDS011;4807;48.024;11.726;2023-06-22T00:57:14;10.67;;;6.37;;
9536;SDS011;4807;48.024;11.726;2023-06-22T01:00:23;11.87;;;6.13;;
9536;SDS011;4807;48.024;11.726;2023-06-22T01:03:32;12.03;;;5.60;;
9536;SDS011;4807;48.024;11.726;2023-06-22T01:06:45;10.13;;;5.57;;
9536;SDS011;4807;48.024;11.726;2023-06-22T01:10:03;11.73;;;5.53;;
9536;SDS011;4807;48.024;11.726;2023-06-22T01:13:21;9.87;;;5.40;;
9536;SDS011;4807;48.024;11.726;2023-06-22T01:16:41;12.30;;;5.43;;
9536;SDS011;4807;48.024;11.726;2023-06-22T01:19:53;10.03;;;5.30;;
9536;SDS011;4807;48.024;11.726;2023-06-22T01:23:07;10.77;;;5.03;;
9536;SDS011;4807;48.024;11.726;2023-06-22T01:26:28;9.47;;;5.37;;
9536;SDS011;4807;48.024;11.726;2023-06-22T01:29:48;10.03;;;5.33;;
9536;SDS011;4807;48.024;11.726;2023-06-22T01:32:58;7.07;;;4.33;;
9536;SDS011;4807;48.024;11.726;2023-06-22T01:36:09;8.33;;;5.20;;
9536;SDS011;4807;48.024;11.726;2023-06-22T01:39:18;7.27;;;4.70;;
9536;SDS011;4807;48.024;11.726;2023-06-22T01:42:31;11.07;;;4.93;;
9536;SDS011;4807;48.024;11.726;2023-06-22T01:45:43;9.60;;;4.23;;
9536;SDS011;4807;48.024;11.726;2023-06-22T01:48:52;10.77;;;3.97;;
9536;SDS011;4807;48.024;11.726;2023-06-22T01:52:01;7.10;;;3.50;;
9536;SDS011;4807;48.024;11.726;2023-06-22T01:55:10;6.23;;;3.77;;
9536;SDS011;4807;48.024;11.726;2023-06-22T01:58:19;8.20;;;4.13;;
9536;SDS011;4807;48.024;11.726;2023-06-22T02:01:34;7.33;;;3.90;;
9536;SDS011;4807;48.024;11.726;2023-06-22T02:04:51;6.50;;;4.10;;
9536;SDS011;4807;48.024;11.726;2023-06-22T02:08:07;9.63;;;3.83;;
9536;SDS011;4807;48.024;11.726;2023-06-22T02:11:22;11.53;;;4.60;;
9536;SDS011;4807;48.024;11.726;2023-06-22T02:14:35;4.43;;;3.47;;
9536;SDS011;4807;48.024;11.726;2023-06-22T02:17:46;7.33;;;4.37;;
9536;SDS011;4807;48.024;11.726;2023-06-22T02:20:55;7.73;;;3.93;;
9536;SDS011;4807;48.024;11.726;2023-06-22T02:24:04;5.27;;;3.63;;
9536;SDS011;4807;48.024;11.726;2023-06-22T02:27:12;6.20;;;4.03;;
9536;SDS011;4807;48.024;11.726;2023-06-22T02:30:20;4.77;;;4.37;;
9536;SDS011;4807;48.024;11.726;2023-06-22T02:33:30;6.10;;;4.43;;
9536;SDS011;4807;48.024;11.726;2023-06-22T02:36:38;7.47;;;4.10;;
9536;SDS011;4807;48.024;11.726;2023-06-22T02:39:46;7.13;;;4.27;;
9536;SDS011;4807;48.024;11.726;2023-06-22T02:42:55;10.97;;;4.70;;
9536;SDS011;4807;48.024;11.726;2023-06-22T02:46:07;8.87;;;5.03;;
9536;SDS011;4807;48.024;11.726;2023-06-22T02:49:17;7.03;;;4.90;;
9536;SDS011;4807;48.024;11.726;2023-06-22T02:52:26;7.57;;;4.57;;
9536;SDS011;4807;48.024;11.726;2023-06-22T02:55:34;6.90;;;5.03;;
9536;SDS011;4807;48.024;11.726;2023-06-22T02:58:42;8.67;;;4.90;;
9536;SDS011;4807;48.024;11.726;2023-06-22T03:01:51;6.07;;;4.43;;
9536;SDS011;4807;48.024;11.726;2023-06-22T03:05:08;9.70;;;5.53;;
9536;SDS011;4807;48.024;11.726;2023-06-22T03:08:19;8.60;;;4.90;;
9536;SDS011;4807;48.024;11.726;2023-06-22T03:11:28;7.00;;;4.60;;
9536;SDS011;4807;48.024;11.726;2023-06-22T03:14:37;7.00;;;4.70;;
9536;SDS011;4807;48.024;11.726;2023-06-22T03:17:46;5.90;;;4.93;;
9536;SDS011;4807;48.024;11.726;2023-06-22T03:20:55;10.70;;;5.27;;
9536;SDS011;4807;48.024;11.726;2023-06-22T03:24:04;7.53;;;5.03;;
9536;SDS011;4807;48.024;11.726;2023-06-22T03:27:13;11.33;;;5.23;;
9536;SDS011;4807;48.024;11.726;2023-06-22T03:30:21;10.07;;;4.93;;
9536;SDS011;4807;48.024;11.726;2023-06-22T03:33:30;8.50;;;5.13;;
9536;SDS011;4807;48.024;11.726;2023-06-22T03:36:39;7.63;;;4.87;;
9536;SDS011;4807;48.024;11.726;2023-06-22T03:39:49;6.63;;;4.70;;
9536;SDS011;4807;48.024;11.726;2023-06-22T03:42:57;10.10;;;5.30;;
9536;SDS011;4807;48.024;11.726;2023-06-22T03:46:05;9.20;;;5.10;;
9536;SDS011;4807;48.024;11.726;2023-06-22T03:49:14;8.23;;;5.10;;
9536;SDS011;4807;48.024;11.726;2023-06-22T03:52:24;7.17;;;5.30;;
9536;SDS011;4807;48.024;11.726;2023-06-22T03:55:33;10.47;;;5.63;;
9536;SDS011;4807;48.024;11.726;2023-06-22T03:58:41;9.37;;;5.10;;
9536;SDS011;4807;48.024;11.726;2023-06-22T04:01:51;10.37;;;5.90;;
9536;SDS011;4807;48.024;11.726;2023-06-22T04:04:59;9.80;;;5.33;;
9536;SDS011;4807;48.024;11.726;2023-06-22T04:08:11;7.27;;;5.60;;
9536;SDS011;4807;48.024;11.726;2023-06-22T04:11:21;13.57;;;5.60;;
9536;SDS011;4807;48.024;11.726;2023-06-22T04:14:31;6.97;;;5.50;;
9536;SDS011;4807;48.024;11.726;2023-06-22T04:17:39;8.80;;;5.30;;
9536;SDS011;4807;48.024;11.726;2023-06-22T04:20:47;7.03;;;5.07;;
9536;SDS011;4807;48.024;11.726;2023-06-22T04:23:57;6.97;;;4.90;;
9536;SDS011;4807;48.024;11.726;2023-06-22T04:27:05;7.53;;;5.07;;
9536;SDS011;4807;48.024;11.726;2023-06-22T04:30:13;11.73;;;5.57;;
9536;SDS011;4807;48.024;11.726;2023-06-22T04:33:22;10.13;;;5.80;;
9536;SDS011;4807;48.024;11.726;2023-06-22T04:36:31;9.47;;;5.60;;
9536;SDS011;4807;48.024;11.726;2023-06-22T04:39:46;9.10;;;5.47;;
9536;SDS011;4807;48.024;11.726;2023-06-22T04:42:54;9.93;;;6.43;;
9536;SDS011;4807;48.024;11.726;2023-06-22T04:46:02;9.53;;;5.57;;
9536;SDS011;4807;48.024;11.726;2023-06-22T04:49:10;8.90;;;5.57;;
9536;SDS011;4807;48.024;11.726;2023-06-22T04:52:19;7.80;;;6.10;;
9536;SDS011;4807;48.024;11.726;2023-06-22T04:55:29;8.23;;;5.17;;
9536;SDS011;4807;48.024;11.726;2023-06-22T04:58:37;11.23;;;5.90;;
9536;SDS011;4807;48.024;11.726;2023-06-22T05:01:45;8.13;;;5.73;;
9536;SDS011;4807;48.024;11.726;2023-06-22T05:04:53;11.50;;;6.47;;
9536;SDS011;4807;48.024;11.726;2023-06-22T05:08:03;10.17;;;6.10;;
9536;SDS011;4807;48.024;11.726;2023-06-22T05:11:14;10.17;;;5.97;;
9536;SDS011;4807;48.024;11.726;2023-06-22T05:14:22;6.90;;;5.53;;
9536;SDS011;4807;48.024;11.726;2023-06-22T05:17:31;8.60;;;6.13;;
9536;SDS011;4807;48.024;11.726;2023-06-22T05:20:39;7.80;;;5.57;;
9536;SDS011;4807;48.024;11.726;2023-06-22T05:23:47;6.83;;;6.13;;
9536;SDS011;4807;48.024;11.726;2023-06-22T05:26:57;10.30;;;5.87;;
9536;SDS011;4807;48.024;11.726;2023-06-22T05:30:07;7.33;;;5.70;;
9536;SDS011;4807;48.024;11.726;2023-06-22T05:33:19;8.83;;;6.00;;
9536;SDS011;4807;48.024;11.726;2023-06-22T05:36:28;14.73;;;5.97;;
9536;SDS011;4807;48.024;11.726;2023-06-22T05:39:36;9.90;;;5.53;;
9536;SDS011;4807;48.024;11.726;2023-06-22T05:42:47;10.63;;;5.63;;
9536;SDS011;4807;48.024;11.726;2023-06-22T05:45:55;8.03;;;5.70;;
9536;SDS011;4807;48.024;11.726;2023-06-22T05:49:04;10.40;;;5.70;;
9536;SDS011;4807;48.024;11.726;2023-06-22T05:52:12;9.83;;;6.17;;
9536;SDS011;4807;48.024;11.726;2023-06-22T05:55:21;7.37;;;5.90;;
9536;SDS011;4807;48.024;11.726;2023-06-22T05:58:30;9.13;;;5.60;;
9536;SDS011;4807;48.024;11.726;2023-06-22T06:01:38;9.17;;;5.90;;
9536;SDS011;4807;48.024;11.726;2023-06-22T06:04:47;7.97;;;5.90;;
9536;SDS011;4807;48.024;11.726;2023-06-22T06:07:57;10.10;;;5.63;;
9536;SDS011;4807;48.024;11.726;2023-06-22T06:11:07;9.47;;;5.37;;
9536;SDS011;4807;48.024;11.726;2023-06-22T06:14:17;10.33;;;5.83;;
9536;SDS011;4807;48.024;11.726;2023-06-22T06:17:26;8.17;;;5.40;;
9536;SDS011;4807;48.024;11.726;2023-06-22T06:20:35;9.80;;;5.27;;
9536;SDS011;4807;48.024;11.726;2023-06-22T06:23:43;16.33;;;5.67;;
9536;SDS011;4807;48.024;11.726;2023-06-22T06:26:51;9.90;;;4.93;;
9536;SDS011;4807;48.024;11.726;2023-06-22T06:30:01;10.43;;;5.00;;
9536;SDS011;4807;48.024;11.726;2023-06-22T06:33:10;9.23;;;5.53;;
9536;SDS011;4807;48.024;11.726;2023-06-22T06:36:18;7.33;;;5.03;;
9536;SDS011;4807;48.024;11.726;2023-06-22T06:39:26;11.57;;;5.03;;
9536;SDS011;4807;48.024;11.726;2023-06-22T06:42:34;6.43;;;5.13;;
9536;SDS011;4807;48.024;11.726;2023-06-22T06:45:45;12.47;;;5.87;;
9536;SDS011;4807;48.024;11.726;2023-06-22T06:48:58;8.83;;;5.53;;
9536;SDS011;4807;48.024;11.726;2023-06-22T06:52:07;8.43;;;5.37;;
9536;SDS011;4807;48.024;11.726;2023-06-22T06:55:15;10.20;;;5.33;;
9536;SDS011;4807;48.024;11.726;2023-06-22T06:58:25;11.30;;;5.47;;
9536;SDS011;4807;48.024;11.726;2023-06-22T07:01:36;9.50;;;5.73;;
9536;SDS011;4807;48.024;11.726;2023-06-22T07:04:44;11.73;;;6.00;;
9536;SDS011;4807;48.024;11.726;2023-06-22T07:07:53;11.77;;;5.20;;
9536;SDS011;4807;48.024;11.726;2023-06-22T07:11:02;13.30;;;5.37;;
9536;SDS011;4807;48.024;11.726;2023-06-22T07:14:10;10.97;;;5.80;;
9536;SDS011;4807;48.024;11.726;2023-06-22T07:17:21;10.97;;;6.00;;
9536;SDS011;4807;48.024;11.726;2023-06-22T07:20:30;12.27;;;6.20;;
9536;SDS011;4807;48.024;11.726;2023-06-22T07:23:38;11.93;;;5.47;;
9536;SDS011;4807;48.024;11.726;2023-06-22T07:26:47;9.00;;;5.67;;
9536;SDS011;4807;48.024;11.726;2023-06-22T07:29:56;8.73;;;5.47;;
9536;SDS011;4807;48.024;11.726;2023-06-22T07:33:05;9.83;;;4.97;;
9536;SDS011;4807;48.024;11.726;2023-06-22T07:36:16;10.47;;;5.47;;
9536;SDS011;4807;48.024;11.726;2023-06-22T07:39:24;7.10;;;5.70;;
9536;SDS011;4807;48.024;11.726;2023-06-22T07:42:33;11.50;;;5.73;;
9536;SDS011;4807;48.024;11.726;2023-06-22T07:45:43;8.30;;;4.90;;
9536;SDS011;4807;48.024;11.726;2023-06-22T07:49:00;13.50;;;5.40;;
9536;SDS011;4807;48.024;11.726;2023-06-22T07:52:08;11.20;;;5.53;;
9536;SDS011;4807;48.024;11.726;2023-06-22T07:55:17;14.70;;;5.50;;
9536;SDS011;4807;48.024;11.726;2023-06-22T07:58:26;10.97;;;5.67;;
9536;SDS011;4807;48.024;11.726;2023-06-22T08:01:34;11.87;;;5.33;;
9536;SDS011;4807;48.024;11.726;2023-06-22T08:04:44;10.70;;;4.90;;
9536;SDS011;4807;48.024;11.726;2023-06-22T08:07:52;11.53;;;5.23;;
9536;SDS011;4807;48.024;11.726;2023-06-22T08:11:01;9.57;;;5.27;;
9536;SDS011;4807;48.024;11.726;2023-06-22T08:14:09;11.90;;;5.80;;
9536;SDS011;4807;48.024;11.726;2023-06-22T08:17:17;12.07;;;5.47;;
9536;SDS011;4807;48.024;11.726;2023-06-22T08:20:27;7.03;;;5.20;;
9536;SDS011;4807;48.024;11.726;2023-06-22T08:23:35;12.03;;;5.43;;
9536;SDS011;4807;48.024;11.726;2023-06-22T08:26:43;9.47;;;5.20;;
9536;SDS011;4807;48.024;11.726;2023-06-22T08:29:52;11.03;;;5.67;;
9536;SDS011;4807;48.024;11.726;2023-06-22T08:33:04;7.40;;;4.67;;
9536;SDS011;4807;48.024;11.726;2023-06-22T08:36:14;10.33;;;5.90;;
9536;SDS011;4807;48.024;11.726;2023-06-22T08:39:22;8.83;;;5.43;;
9536;SDS011;4807;48.024;11.726;2023-06-22T08:42:31;8.40;;;5.13;;
9536;SDS011;4807;48.024;11.726;2023-06-22T08:45:39;7.57;;;4.93;;
9536;SDS011;4807;48.024;11.726;2023-06-22T08:48:48;8.33;;;4.67;;
9536;SDS011;4807;48.024;11.726;2023-06-22T08:51:59;8.83;;;5.67;;
9536;SDS011;4807;48.024;11.726;2023-06-22T08:55:07;10.83;;;5.13;;
9536;SDS011;4807;48.024;11.726;2023-06-22T08:58:17;9.63;;;5.43;;
9536;SDS011;4807;48.024;11.726;2023-06-22T09:01:27;10.33;;;5.73;;
9536;SDS011;4807;48.024;11.726;2023-06-22T09:04:35;10.13;;;5.57;;
9536;SDS011;4807;48.024;11.726;2023-06-22T09:07:45;10.30;;;5.20;;
9536;SDS011;4807;48.024;11.726;2023-06-22T09:10:53;13.17;;;5.70;;
9536;SDS011;4807;48.024;11.726;2023-06-22T09:14:01;9.87;;;5.07;;
9536;SDS011;4807;48.024;11.726;2023-06-22T09:17:10;9.97;;;5.87;;
9536;SDS011;4807;48.024;11.726;2023-06-22T09:20:19;12.27;;;5.83;;
9536;SDS011;4807;48.024;11.726;2023-06-22T09:23:29;9.73;;;5.53;;
9536;SDS011;4807;48.024;11.726;2023-06-22T09:26:37;12.70;;;5.77;;
9536;SDS011;4807;48.024;11.726;2023-06-22T09:29:46;12.53;;;6.80;;
9536;SDS011;4807;48.024;11.726;2023-06-22T09:32:54;9.73;;;5.20;;
9536;SDS011;4807;48.024;11.726;2023-06-22T09:36:03;13.87;;;5.57;;
9536;SDS011;4807;48.024;11.726;2023-06-22T09:39:14;15.67;;;6.17;;
9536;SDS011;4807;48.024;11.726;2023-06-22T09:42:23;7.27;;;4.90;;
9536;SDS011;4807;48.024;11.726;2023-06-22T09:45:31;11.20;;;5.60;;
9536;SDS011;4807;48.024;11.726;2023-06-22T09:48:39;10.07;;;5.77;;
9536;SDS011;4807;48.024;11.726;2023-06-22T09:51:47;9.20;;;5.80;;
9536;SDS011;4807;48.024;11.726;2023-06-22T09:54:58;8.23;;;5.60;;
9536;SDS011;4807;48.024;11.726;2023-06-22T09:58:06;15.63;;;6.00;;
9536;SDS011;4807;48.024;11.726;2023-06-22T10:01:16;14.80;;;5.57;;
9536;SDS011;4807;48.024;11.726;2023-06-22T10:04:24;12.97;;;5.50;;
9536;SDS011;4807;48.024;11.726;2023-06-22T10:07:33;7.20;;;5.57;;
9536;SDS011;4807;48.024;11.726;2023-06-22T10:10:47;12.00;;;5.03;;
9536;SDS011;4807;48.024;11.726;2023-06-22T10:13:59;11.50;;;5.53;;
9536;SDS011;4807;48.024;11.726;2023-06-22T10:17:07;10.67;;;5.33;;
9536;SDS011;4807;48.024;11.726;2023-06-22T10:20:15;12.30;;;5.70;;
9536;SDS011;4807;48.024;11.726;2023-06-22T10:23:24;8.93;;;5.60;;
9536;SDS011;4807;48.024;11.726;2023-06-22T10:26:34;15.37;;;5.70;;
9536;SDS011;4807;48.024;11.726;2023-06-22T10:29:43;11.50;;;5.00;;
9536;SDS011;4807;48.024;11.726;2023-06-22T10:32:52;11.83;;;5.40;;
9536;SDS011;4807;48.024;11.726;2023-06-22T10:36:00;11.03;;;5.00;;
9536;SDS011;4807;48.024;11.726;2023-06-22T10:39:08;10.47;;;5.37;;
9536;SDS011;4807;48.024;11.726;2023-06-22T10:42:18;8.97;;;5.30;;
9536;SDS011;4807;48.024;11.726;2023-06-22T10:45:26;9.67;;;4.90;;
9536;SDS011;4807;48.024;11.726;2023-06-22T10:48:35;13.80;;;5.50;;
9536;SDS011;4807;48.024;11.726;2023-06-22T10:51:44;11.43;;;5.57;;
9536;SDS011;4807;48.024;11.726;2023-06-22T10:54:52;10.07;;;5.27;;
9536;SDS011;4807;48.024;11.726;2023-06-22T10:58:02;13.60;;;8.87;;
9536;SDS011;4807;48.024;11.726;2023-06-22T11:01:13;18.97;;;8.73;;
9536;SDS011;4807;48.024;11.726;2023-06-22T11:04:40;11.13;;;6.30;;
9536;SDS011;4807;48.024;11.726;2023-06-22T11:07:48;26.87;;;16.23;;
9536;SDS011;4807;48.024;11.726;2023-06-22T11:10:57;24.43;;;14.53;;
9536;SDS011;4807;48.024;11.726;2023-06-22T11:14:06;15.00;;;9.30;;
9536;SDS011;4807;48.024;11.726;2023-06-22T11:17:15;15.00;;;7.10;;
9536;SDS011;4807;48.024;11.726;2023-06-22T11:20:23;13.90;;;6.73;;
9536;SDS011;4807;48.024;11.726;2023-06-22T11:23:31;14.97;;;9.27;;
9536;SDS011;4807;48.024;11.726;2023-06-22T11:26:39;13.20;;;5.80;;
9536;SDS011;4807;48.024;11.726;2023-06-22T11:29:49;17.67;;;9.43;;
9536;SDS011;4807;48.024;11.726;2023-06-22T11:32:59;10.93;;;5.10;;
9536;SDS011;4807;48.024;11.726;2023-06-22T11:36:08;12.90;;;6.90;;
9536;SDS011;4807;48.024;11.726;2023-06-22T11:39:17;13.73;;;6.20;;
9536;SDS011;4807;48.024;11.726;2023-06-22T11:42:39;11.40;;;5.67;;
9536;SDS011;4807;48.024;11.726;2023-06-22T11:45:49;12.83;;;6.10;;
9536;SDS011;4807;48.024;11.726;2023-06-22T11:48:57;13.10;;;5.57;;
9536;SDS011;4807;48.024;11.726;2023-06-22T11:52:05;9.47;;;5.37;;
9536;SDS011;4807;48.024;11.726;2023-06-22T11:55:14;13.17;;;5.80;;
9536;SDS011;4807;48.024;11.726;2023-06-22T11:58:23;10.00;;;6.30;;
9536;SDS011;4807;48.024;11.726;2023-06-22T12:01:32;13.40;;;5.27;;
9536;SDS011;4807;48.024;11.726;2023-06-22T12:04:41;9.93;;;4.93;;
9536;SDS011;4807;48.024;11.726;2023-06-22T12:07:49;9.97;;;5.07;;
9536;SDS011;4807;48.024;11.726;2023-06-22T12:11:00;9.27;;;5.00;;
9536;SDS011;4807;48.024;11.726;2023-06-22T12:14:08;9.73;;;4.93;;
9536;SDS011;4807;48.024;11.726;2023-06-22T12:17:18;11.23;;;5.30;;
9536;SDS011;4807;48.024;11.726;2023-06-22T12:20:26;12.33;;;5.37;;
9536;SDS011;4807;48.024;11.726;2023-06-22T12:23:35;13.20;;;4.93;;
9536;SDS011;4807;48.024;11.726;2023-06-22T12:26:43;11.80;;;4.90;;
9536;SDS011;4807;48.024;11.726;2023-06-22T12:29:51;10.97;;;5.47;;
9536;SDS011;4807;48.024;11.726;2023-06-22T12:33:01;14.00;;;5.10;;
9536;SDS011;4807;48.024;11.726;2023-06-22T12:36:09;12.80;;;4.97;;
9536;SDS011;4807;48.024;11.726;2023-06-22T12:39:18;9.83;;;5.13;;
9536;SDS011;4807;48.024;11.726;2023-06-22T12:42:26;13.70;;;4.93;;
9536;SDS011;4807;48.024;11.726;2023-06-22T12:45:34;12.27;;;5.33;;
9536;SDS011;4807;48.024;11.726;2023-06-22T12:48:44;14.27;;;5.30;;
9536;SDS011;4807;48.024;11.726;2023-06-22T12:51:52;10.43;;;4.80;;
9536;SDS011;4807;48.024;11.726;2023-06-22T12:55:00;9.10;;;5.40;;
9536;SDS011;4807;48.024;11.726;2023-06-22T12:58:08;12.90;;;4.80;;
9536;SDS011;4807;48.024;11.726;2023-06-22T13:01:16;8.43;;;5.17;;
9536;SDS011;4807;48.024;11.726;2023-06-22T13:04:26;10.10;;;5.03;;
9536;SDS011;4807;48.024;11.726;2023-06-22T13:07:34;11.53;;;5.30;;
9536;SDS011;4807;48.024;11.726;2023-06-22T13:10:43;11.23;;;5.17;;
9536;SDS011;4807;48.024;11.726;2023-06-22T13:13:51;11.10;;;5.30;;
9536;SDS011;4807;48.024;11.726;2023-06-22T13:17:00;9.17;;;5.30;;
9536;SDS011;4807;48.024;11.726;2023-06-22T13:20:10;12.63;;;5.53;;
9536;SDS011;4807;48.024;11.726;2023-06-22T13:23:18;14.37;;;5.20;;
9536;SDS011;4807;48.024;11.726;2023-06-22T13:26:26;9.03;;;4.53;;
9536;SDS011;4807;48.024;11.726;2023-06-22T13:29:36;13.67;;;5.60;;
9536;SDS011;4807;48.024;11.726;2023-06-22T13:32:44;9.37;;;4.83;;
9536;SDS011;4807;48.024;11.726;2023-06-22T13:35:54;13.83;;;5.73;;
9536;SDS011;4807;48.024;11.726;2023-06-22T13:39:02;12.67;;;4.77;;
9536;SDS011;4807;48.024;11.726;2023-06-22T13:42:10;11.50;;;4.87;;
9536;SDS011;4807;48.024;11.726;2023-06-22T13:45:19;10.67;;;4.87;;
9536;SDS011;4807;48.024;11.726;2023-06-22T13:48:27;9.47;;;4.63;;
9536;SDS011;4807;48.024;11.726;2023-06-22T13:51:37;11.20;;;5.43;;
9536;SDS011;4807;48.024;11.726;2023-06-22T13:54:45;12.83;;;5.13;;
9536;SDS011;4807;48.024;11.726;2023-06-22T13:57:53;14.03;;;5.43;;
9536;SDS011;4807;48.024;11.726;2023-06-22T14:01:01;9.43;;;5.10;;
9536;SDS011;4807;48.024;11.726;2023-06-22T14:04:09;9.17;;;4.77;;
9536;SDS011;4807;48.024;11.726;2023-06-22T14:07:19;13.17;;;4.77;;
9536;SDS011;4807;48.024;11.726;2023-06-22T14:10:27;12.67;;;4.53;;
9536;SDS011;4807;48.024;11.726;2023-06-22T14:13:36;9.53;;;4.73;;
9536;SDS011;4807;48.024;11.726;2023-06-22T14:16:44;12.77;;;5.23;;
9536;SDS011;4807;48.024;11.726;2023-06-22T14:19:52;12.17;;;5.03;;
9536;SDS011;4807;48.024;11.726;2023-06-22T14:23:03;9.10;;;4.17;;
9536;SDS011;4807;48.024;11.726;2023-06-22T14:26:11;12.67;;;4.40;;
9536;SDS011;4807;48.024;11.726;2023-06-22T14:29:20;13.17;;;4.70;;
9536;SDS011;4807;48.024;11.726;2023-06-22T14:32:28;9.60;;;4.43;;
9536;SDS011;4807;48.024;11.726;2023-06-22T14:35:37;13.63;;;4.77;;
9536;SDS011;4807;48.024;11.726;2023-06-22T14:38:46;10.20;;;4.40;;
9536;SDS011;4807;48.024;11.726;2023-06-22T14:41:54;10.53;;;4.37;;
9536;SDS011;4807;48.024;11.726;2023-06-22T14:45:03;8.47;;;4.20;;
9536;SDS011;4807;48.024;11.726;2023-06-22T14:48:12;12.80;;;5.00;;
9536;SDS011;4807;48.024;11.726;2023-06-22T14:51:20;9.50;;;4.47;;
9536;SDS011;4807;48.024;11.726;2023-06-22T14:54:30;9.90;;;5.00;;
9536;SDS011;4807;48.024;11.726;2023-06-22T14:57:38;11.83;;;4.77;;
9536;SDS011;4807;48.024;11.726;2023-06-22T15:00:46;10.50;;;4.50;;
9536;SDS011;4807;48.024;11.726;2023-06-22T15:03:55;8.27;;;4.00;;
9536;SDS011;4807;48.024;11.726;2023-06-22T15:07:03;9.00;;;4.80;;
9536;SDS011;4807;48.024;11.726;2023-06-22T15:10:14;11.60;;;4.43;;
9536;SDS011;4807;48.024;11.726;2023-06-22T15:13:22;12.20;;;4.63;;
9536;SDS011;4807;48.024;11.726;2023-06-22T15:16:30;12.83;;;4.17;;
9536;SDS011;4807;48.024;11.726;2023-06-22T15:19:39;7.87;;;4.67;;
9536;SDS011;4807;48.024;11.726;2023-06-22T15:22:47;10.43;;;4.60;;
9536;SDS011;4807;48.024;11.726;2023-06-22T15:25:57;11.23;;;4.20;;
9536;SDS011;4807;48.024;11.726;2023-06-22T15:29:06;7.90;;;3.80;;
9536;SDS011;4807;48.024;11.726;2023-06-22T15:32:14;14.73;;;4.63;;
9536;SDS011;4807;48.024;11.726;2023-06-22T15:35:22;13.60;;;3.77;;
9536;SDS011;4807;48.024;11.726;2023-06-22T15:38:31;9.70;;;4.43;;
9536;SDS011;4807;48.024;11.726;2023-06-22T15:41:41;11.57;;;4.13;;
9536;SDS011;4807;48.024;11.726;2023-06-22T15:44:49;8.50;;;4.90;;
9536;SDS011;4807;48.024;11.726;2023-06-22T15:47:57;10.53;;;4.63;;
9536;SDS011;4807;48.024;11.726;2023-06-22T15:51:06;8.10;;;4.63;;
9536;SDS011;4807;48.024;11.726;2023-06-22T15:54:14;10.73;;;4.53;;
9536;SDS011;4807;48.024;11.726;2023-06-22T15:57:24;9.23;;;4.03;;
9536;SDS011;4807;48.024;11.726;2023-06-22T16:00:33;7.10;;;4.47;;
9536;SDS011;4807;48.024;11.726;2023-06-22T16:03:42;13.83;;;4.53;;
9536;SDS011;4807;48.024;11.726;2023-06-22T16:06:50;12.20;;;4.03;;
9536;SDS011;4807;48.024;11.726;2023-06-22T16:09:58;11.20;;;4.27;;
9536;SDS011;4807;48.024;11.726;2023-06-22T16:13:08;11.10;;;4.10;;
9536;SDS011;4807;48.024;11.726;2023-06-22T16:16:17;9.57;;;4.23;;
9536;SDS011;4807;48.024;11.726;2023-06-22T16:19:25;8.40;;;4.20;;
9536;SDS011;4807;48.024;11.726;2023-06-22T16:22:35;10.43;;;4.63;;
9536;SDS011;4807;48.024;11.726;2023-06-22T16:25:44;10.23;;;4.40;;
9536;SDS011;4807;48.024;11.726;2023-06-22T16:28:54;6.90;;;4.33;;
9536;SDS011;4807;48.024;11.726;2023-06-22T16:32:02;15.87;;;4.83;;
9536;SDS011;4807;48.024;11.726;2023-06-22T16:35:11;10.90;;;4.30;;
9536;SDS011;4807;48.024;11.726;2023-06-22T16:38:22;15.23;;;4.50;;
9536;SDS011;4807;48.024;11.726;2023-06-22T16:41:30;8.33;;;4.03;;
9536;SDS011;4807;48.024;11.726;2023-06-22T16:44:39;11.23;;;4.40;;
9536;SDS011;4807;48.024;11.726;2023-06-22T16:47:49;8.53;;;4.70;;
9536;SDS011;4807;48.024;11.726;2023-06-22T16:50:58;10.80;;;4.73;;
9536;SDS011;4807;48.024;11.726;2023-06-22T16:54:07;8.23;;;4.60;;
9536;SDS011;4807;48.024;11.726;2023-06-22T16:57:15;8.13;;;4.27;;
9536;SDS011;4807;48.024;11.726;2023-06-22T17:00:28;12.40;;;4.53;;
9536;SDS011;4807;48.024;11.726;2023-06-22T17:03:39;13.33;;;4.60;;
9536;SDS011;4807;48.024;11.726;2023-06-22T17:06:53;7.67;;;4.43;;
9536;SDS011;4807;48.024;11.726;2023-06-22T17:10:08;7.87;;;3.93;;
9536;SDS011;4807;48.024;11.726;2023-06-22T17:13:17;10.17;;;4.77;;
9536;SDS011;4807;48.024;11.726;2023-06-22T17:16:27;9.90;;;4.83;;
9536;SDS011;4807;48.024;11.726;2023-06-22T17:19:39;14.83;;;5.40;;
9536;SDS011;4807;48.024;11.726;2023-06-22T17:22:48;17.37;;;5.30;;
9536;SDS011;4807;48.024;11.726;2023-06-22T17:25:57;13.43;;;5.07;;
9536;SDS011;4807;48.024;11.726;2023-06-22T17:29:09;10.43;;;3.63;;
9536;SDS011;4807;48.024;11.726;2023-06-22T17:32:21;8.40;;;2.60;;
9536;SDS011;4807;48.024;11.726;2023-06-22T17:35:30;9.20;;;1.90;;
9536;SDS011;4807;48.024;11.726;2023-06-22T17:38:39;9.30;;;2.53;;
9536;SDS011;4807;48.024;11.726;2023-06-22T17:41:48;11.20;;;4.50;;
9536;SDS011;4807;48.024;11.726;2023-06-22T17:45:00;17.60;;;5.47;;
9536;SDS011;4807;48.024;11.726;2023-06-22T17:48:10;16.67;;;5.70;;
9536;SDS011;4807;48.024;11.726;2023-06-22T17:51:19;16.00;;;6.27;;
9536;SDS011;4807;48.024;11.726;2023-06-22T17:54:29;19.37;;;7.40;;
9536;SDS011;4807;48.024;11.726;2023-06-22T17:57:55;26.00;;;10.10;;
9536;SDS011;4807;48.024;11.726;2023-06-22T18:01:04;26.13;;;9.53;;
9536;SDS011;4807;48.024;11.726;2023-06-22T18:04:15;19.50;;;9.63;;
9536;SDS011;4807;48.024;11.726;2023-06-22T18:07:26;22.93;;;8.83;;
9536;SDS011;4807;48.024;11.726;2023-06-22T18:10:36;18.53;;;7.50;;
9536;SDS011;4807;48.024;11.726;2023-06-22T18:13:47;19.10;;;7.97;;
9536;SDS011;4807;48.024;11.726;2023-06-22T18:16:55;17.00;;;8.23;;
9536;SDS011;4807;48.024;11.726;2023-06-22T18:20:09;14.07;;;7.13;;
9536;SDS011;4807;48.024;11.726;2023-06-22T18:23:18;9.87;;;7.50;;
9536;SDS011;4807;48.024;11.726;2023-06-22T18:26:28;14.97;;;8.37;;
9536;SDS011;4807;48.024;11.726;2023-06-22T18:29:36;19.40;;;8.77;;
9536;SDS011;4807;48.024;11.726;2023-06-22T18:32:46;15.30;;;8.90;;
9536;SDS011;4807;48.024;11.726;2023-06-22T18:35:57;14.77;;;7.43;;
9536;SDS011;4807;48.024;11.726;2023-06-22T18:39:07;15.40;;;7.73;;
9536;SDS011;4807;48.024;11.726;2023-06-22T18:42:18;15.97;;;7.60;;
9536;SDS011;4807;48.024;11.726;2023-06-22T18:45:28;12.30;;;7.17;;
9536;SDS011;4807;48.024;11.726;2023-06-22T18:48:39;14.47;;;8.10;;
9536;SDS011;4807;48.024;11.726;2023-06-22T18:51:55;12.90;;;7.43;;
9536;SDS011;4807;48.024;11.726;2023-06-22T18:55:11;14.97;;;8.20;;
9536;SDS011;4807;48.024;11.726;2023-06-22T18:58:22;17.17;;;8.17;;
9536;SDS011;4807;48.024;11.726;2023-06-22T19:01:32;16.77;;;7.93;;
9536;SDS011;4807;48.024;11.726;2023-06-22T19:04:41;11.67;;;6.77;;
9536;SDS011;4807;48.024;11.726;2023-06-22T19:07:58;19.23;;;8.30;;